Cape Stefanie — 5BRN3 — position and weather

sailwx.info

Track history (hours):
 
Tides and Currents Weather Stations Pressure Air Temp Water Temp Dewpoint Dewpoint Depression Visibility Wind Speed Wind Dir Waves Ship Positions

Cape Stefanie

Last reported at 2018-May-24 05:55 UTC. Time now 2018-Jun-19 19:56 UTC.
Position N 38°31' W 010°20'.
Warning: this ship's position is 26 days out of date.

Length 293 m; draft 10 m.

Type: Cargo ship. MMSI: 210593000.

Date/timePositionNaut miles runAvg speedWind from/ knotsBaromVisibWave heightAir tempDewpointWater temp
2018-May-24 05:55N 38°31' W 010°20'512.2
2018-May-24 05:30N 38°32' W 010°13'612.4
2018-May-24 05:00N 38°34' W 010°06'611.8
2018-May-24 04:30N 38°34' W 009°58'612.2
2018-May-24 04:00N 38°34' W 009°51'612.4
2018-May-24 03:30N 38°34' W 009°43'612.1
2018-May-24 03:00N 38°35' W 009°35'510.9
2018-May-24 02:30N 38°35' W 009°28'611.4
2018-May-24 02:00N 38°38' W 009°22'611.0
2018-May-24 01:30N 38°41' W 009°16'3 6.1
2018-May-24 00:57N 38°41' W 009°12'0 0.1
2018-May-23 22:03N 38°41' W 009°11'0 0.0
2018-May-23 21:51N 38°41' W 009°11'0 0.0
2018-May-23 20:36N 38°41' W 009°11'0 0.0
2018-May-23 19:48N 38°41' W 009°11'0 0.2
2018-May-23 19:12N 38°41' W 009°11'0 0.0
2018-May-23 18:42N 38°41' W 009°11'0 0.1
2018-May-23 18:30N 38°41' W 009°11'0 0.1
2018-May-23 18:00N 38°41' W 009°11'0 0.2
2018-May-23 17:15N 38°41' W 009°12'0 0.3
2018-May-23 17:00N 38°41' W 009°12'0 0.1
2018-May-23 14:20N 38°41' W 009°12'0 0.0
2018-May-23 13:54N 38°41' W 009°12'0 0.0
2018-May-23 13:26N 38°41' W 009°12'0 0.0
2018-May-23 12:53N 38°41' W 009°12'0 0.2
2018-May-23 10:38N 38°41' W 009°12'0 0.0
2018-May-23 08:56N 38°41' W 009°11'0 0.0
2018-May-23 08:17N 38°41' W 009°11'0 0.1
2018-May-23 07:17N 38°41' W 009°11'0 0.0
2018-May-23 06:47N 38°41' W 009°11'0 0.2
2018-May-23 06:17N 38°41' W 009°12'0 0.4
2018-May-23 05:35N 38°41' W 009°12'0 0.1
2018-May-23 05:17N 38°41' W 009°12'0 0.0
2018-May-23 03:26N 38°41' W 009°12'0 0.0
2018-May-23 02:53N 38°41' W 009°12'0 0.0
2018-May-23 02:17N 38°41' W 009°12'0 0.0
2018-May-22 23:47N 38°41' W 009°12'0 0.1
2018-May-22 23:20N 38°41' W 009°12'0 0.2
2018-May-22 23:00N 38°41' W 009°12'1 2.1
2018-May-22 22:30N 38°41' W 009°13'2 5.1
2018-May-22 22:00N 38°41' W 009°16'610.9
2018-May-22 21:30N 38°38' W 009°22'4 7.2
2018-May-22 21:00N 38°39' W 009°26'1 2.8
2018-May-22 20:30N 38°39' W 009°28'3 6.7
2018-May-22 19:59N 38°37' W 009°31'611.6
2018-May-22 19:30N 38°38' W 009°39'510.1
2018-May-22 19:01N 38°42' W 009°43'612.0
2018-May-22 18:30N 38°48' W 009°43'611.8
2018-May-22 18:01N 38°53' W 009°44'612.0
2018-May-22 17:30N 38°59' W 009°45'611.8
2018-May-22 17:00N 39°05' W 009°45'611.7
2018-May-22 16:30N 39°11' W 009°46'611.9
2018-May-22 16:01N 39°17' W 009°46'611.7
2018-May-22 15:31N 39°23' W 009°47'612.0
2018-May-22 15:01N 39°29' W 009°47'304 9.3
2018-May-21 06:18N 43°48' W 006°14'913.7
2018-May-21 05:39N 43°47' W 006°02'213.7
2018-May-21 05:30N 43°47' W 005°59'713.4
2018-May-21 04:57N 43°46' W 005°49'611.5
2018-May-21 04:27N 43°43' W 005°42'611.4
2018-May-21 03:54N 43°38' W 005°38'3 7.9
2018-May-21 03:30N 43°35' W 005°38'2 3.1
2018-May-21 02:49N 43°34' W 005°41'0 0.0
2018-May-21 02:19N 43°34' W 005°41'0 0.0
2018-May-21 01:49N 43°34' W 005°41'0 0.0
2018-May-20 20:37N 43°34' W 005°41'0 0.0
2018-May-20 20:19N 43°34' W 005°41'0 0.0
2018-May-20 19:19N 43°34' W 005°41'0 0.0
2018-May-20 18:49N 43°34' W 005°41'0 0.0
2018-May-20 18:13N 43°34' W 005°41'0 0.0
2018-May-20 17:43N 43°34' W 005°41'0 0.0
2018-May-20 17:25N 43°34' W 005°41'0 0.0
2018-May-20 12:57N 43°34' W 005°41'0 0.0
2018-May-20 12:27N 43°34' W 005°41'0 0.0
2018-May-20 11:57N 43°34' W 005°41'0 0.0
2018-May-20 10:21N 43°34' W 005°41'0 0.0
2018-May-20 09:21N 43°34' W 005°41'0 0.0
2018-May-20 08:57N 43°34' W 005°41'0 0.0
2018-May-20 08:28N 43°34' W 005°41'0 0.0
2018-May-20 07:25N 43°34' W 005°41'0 0.0
2018-May-20 06:55N 43°34' W 005°41'0 0.0
2018-May-20 06:25N 43°34' W 005°41'0 0.0
2018-May-20 05:49N 43°34' W 005°41'0 0.0
2018-May-20 05:19N 43°34' W 005°41'0 0.0
2018-May-20 04:55N 43°34' W 005°41'0 0.0
2018-May-20 04:25N 43°34' W 005°41'0 0.0
2018-May-20 03:55N 43°34' W 005°41'0 0.0
2018-May-20 03:25N 43°34' W 005°41'0 0.0
2018-May-20 02:49N 43°34' W 005°41'0 0.0
2018-May-20 02:25N 43°34' W 005°41'0 0.0
2018-May-20 01:55N 43°34' W 005°41'0 0.1
2018-May-20 01:30N 43°34' W 005°41'0 0.1
2018-May-20 01:00N 43°34' W 005°41'0 0.0
2018-May-20 00:18N 43°34' W 005°41'0 0.0
2018-May-19 20:38N 43°34' W 005°41'0 0.0
2018-May-19 20:20N 43°34' W 005°41'0 0.0
2018-May-19 13:16N 43°34' W 005°41'0 0.0
2018-May-19 12:52N 43°34' W 005°41'0 0.0
2018-May-19 12:28N 43°34' W 005°41'0 0.0
2018-May-19 11:58N 43°34' W 005°41'0 0.0
2018-May-19 11:28N 43°34' W 005°41'0 0.0
2018-May-19 10:33N 43°34' W 005°41'0 0.0
2018-May-19 08:45N 43°34' W 005°41'0 0.0
2018-May-19 08:26N 43°34' W 005°41'0 0.0
2018-May-19 07:55N 43°34' W 005°41'0 0.0
2018-May-19 07:25N 43°34' W 005°41'0 0.0
2018-May-19 06:25N 43°34' W 005°41'0 0.0
2018-May-19 05:55N 43°34' W 005°41'0 0.0
2018-May-19 05:13N 43°34' W 005°41'0 0.0
2018-May-19 04:55N 43°34' W 005°41'0 0.0
2018-May-19 04:25N 43°34' W 005°41'0 0.0
2018-May-19 02:55N 43°34' W 005°41'0 0.0
2018-May-19 02:19N 43°34' W 005°41'0 0.0
2018-May-19 01:49N 43°34' W 005°41'0 0.0
2018-May-19 00:55N 43°34' W 005°41'0 0.0
2018-May-19 00:25N 43°34' W 005°41'0 0.0
2018-May-18 19:48N 43°34' W 005°41'0 0.0
2018-May-18 19:18N 43°34' W 005°41'0 0.0
2018-May-18 19:00N 43°34' W 005°41'0 0.0
2018-May-18 18:18N 43°34' W 005°41'0 0.0
2018-May-18 16:18N 43°34' W 005°41'0 0.0
2018-May-18 12:00N 43°34' W 005°41'0 0.2
2018-May-18 11:29N 43°34' W 005°41'0 0.1
2018-May-18 10:39N 43°34' W 005°41'0 0.0
2018-May-18 10:27N 43°34' W 005°41'0 0.0
2018-May-18 09:39N 43°34' W 005°41'0 0.0
2018-May-18 09:27N 43°34' W 005°41'0 0.0
2018-May-18 08:45N 43°34' W 005°41'0 0.0
2018-May-18 08:25N 43°34' W 005°41'0 0.0
2018-May-18 06:13N 43°34' W 005°41'0 0.0
2018-May-18 05:55N 43°34' W 005°41'0 0.0
2018-May-18 04:37N 43°34' W 005°41'0 0.0
2018-May-18 04:19N 43°34' W 005°41'0 0.0
2018-May-18 03:55N 43°34' W 005°41'0 0.0
2018-May-18 03:19N 43°34' W 005°41'0 0.0
2018-May-18 02:43N 43°34' W 005°41'0 0.0
2018-May-18 02:25N 43°34' W 005°41'0 0.0
2018-May-18 01:01N 43°34' W 005°41'0 0.0
2018-May-18 00:55N 43°34' W 005°41'0 0.0
2018-May-18 00:19N 43°34' W 005°41'0 0.0
2018-May-17 19:49N 43°34' W 005°41'0 0.0
2018-May-17 19:19N 43°34' W 005°41'0 0.0
2018-May-17 18:49N 43°34' W 005°41'0 0.0
2018-May-17 17:55N 43°34' W 005°41'0 0.0
2018-May-17 17:31N 43°34' W 005°41'0 0.0
2018-May-17 11:30N 43°34' W 005°41'0 0.0
2018-May-17 04:38N 43°34' W 005°41'0 0.0
2018-May-17 04:26N 43°34' W 005°41'0 0.1
2018-May-17 03:59N 43°34' W 005°41'0 0.8
2018-May-17 03:29N 43°34' W 005°41'2 3.5
2018-May-17 03:00N 43°35' W 005°40'3 5.7
2018-May-17 02:30N 43°38' W 005°41'510.2
2018-May-17 02:00N 43°43' W 005°42'2 3.4
2018-May-17 01:30N 43°45' W 005°43'0 0.4
2018-May-17 00:37N 43°45' W 005°43'0 1.0
2018-May-17 00:19N 43°44' W 005°43'  
Track history (hours):
 
Tides and Currents Weather Stations Pressure Air Temp Water Temp Dewpoint Dewpoint Depression Visibility Wind Speed Wind Dir Waves Ship Positions

Cape Stefanie

Last reported at 2018-May-24 05:55 UTC. Time now 2018-Jun-19 19:56 UTC.
Position N 38°31' W 010°20'.
Warning: this ship's position is 26 days out of date.

Length 293 m; draft 10 m.

Type: Cargo ship. MMSI: 210593000.

Date/timePositionNaut miles runAvg speedWind from/ knotsBaromVisibWave heightAir tempDewpointWater temp
2018-May-24 05:55N 38°31' W 010°20'512.2
2018-May-24 05:30N 38°32' W 010°13'612.4
2018-May-24 05:00N 38°34' W 010°06'611.8
2018-May-24 04:30N 38°34' W 009°58'612.2
2018-May-24 04:00N 38°34' W 009°51'612.4
2018-May-24 03:30N 38°34' W 009°43'612.1
2018-May-24 03:00N 38°35' W 009°35'510.9
2018-May-24 02:30N 38°35' W 009°28'611.4
2018-May-24 02:00N 38°38' W 009°22'611.0
2018-May-24 01:30N 38°41' W 009°16'3 6.1
2018-May-24 00:57N 38°41' W 009°12'0 0.1
2018-May-23 22:03N 38°41' W 009°11'0 0.0
2018-May-23 21:51N 38°41' W 009°11'0 0.0
2018-May-23 20:36N 38°41' W 009°11'0 0.0
2018-May-23 19:48N 38°41' W 009°11'0 0.2
2018-May-23 19:12N 38°41' W 009°11'0 0.0
2018-May-23 18:42N 38°41' W 009°11'0 0.1
2018-May-23 18:30N 38°41' W 009°11'0 0.1
2018-May-23 18:00N 38°41' W 009°11'0 0.2
2018-May-23 17:15N 38°41' W 009°12'0 0.3
2018-May-23 17:00N 38°41' W 009°12'0 0.1
2018-May-23 14:20N 38°41' W 009°12'0 0.0
2018-May-23 13:54N 38°41' W 009°12'0 0.0
2018-May-23 13:26N 38°41' W 009°12'0 0.0
2018-May-23 12:53N 38°41' W 009°12'0 0.2
2018-May-23 10:38N 38°41' W 009°12'0 0.0
2018-May-23 08:56N 38°41' W 009°11'0 0.0
2018-May-23 08:17N 38°41' W 009°11'0 0.1
2018-May-23 07:17N 38°41' W 009°11'0 0.0
2018-May-23 06:47N 38°41' W 009°11'0 0.2
2018-May-23 06:17N 38°41' W 009°12'0 0.4
2018-May-23 05:35N 38°41' W 009°12'0 0.1
2018-May-23 05:17N 38°41' W 009°12'0 0.0
2018-May-23 03:26N 38°41' W 009°12'0 0.0
2018-May-23 02:53N 38°41' W 009°12'0 0.0
2018-May-23 02:17N 38°41' W 009°12'0 0.0
2018-May-22 23:47N 38°41' W 009°12'0 0.1
2018-May-22 23:20N 38°41' W 009°12'0 0.2
2018-May-22 23:00N 38°41' W 009°12'1 2.1
2018-May-22 22:30N 38°41' W 009°13'2 5.1
2018-May-22 22:00N 38°41' W 009°16'610.9
2018-May-22 21:30N 38°38' W 009°22'4 7.2
2018-May-22 21:00N 38°39' W 009°26'1 2.8
2018-May-22 20:30N 38°39' W 009°28'3 6.7
2018-May-22 19:59N 38°37' W 009°31'611.6
2018-May-22 19:30N 38°38' W 009°39'510.1
2018-May-22 19:01N 38°42' W 009°43'612.0
2018-May-22 18:30N 38°48' W 009°43'611.8
2018-May-22 18:01N 38°53' W 009°44'612.0
2018-May-22 17:30N 38°59' W 009°45'611.8
2018-May-22 17:00N 39°05' W 009°45'611.7
2018-May-22 16:30N 39°11' W 009°46'611.9
2018-May-22 16:01N 39°17' W 009°46'611.7
2018-May-22 15:31N 39°23' W 009°47'612.0
2018-May-22 15:01N 39°29' W 009°47'304 9.3
2018-May-21 06:18N 43°48' W 006°14'913.7
2018-May-21 05:39N 43°47' W 006°02'213.7
2018-May-21 05:30N 43°47' W 005°59'713.4
2018-May-21 04:57N 43°46' W 005°49'611.5
2018-May-21 04:27N 43°43' W 005°42'611.4
2018-May-21 03:54N 43°38' W 005°38'3 7.9
2018-May-21 03:30N 43°35' W 005°38'2 3.1
2018-May-21 02:49N 43°34' W 005°41'0 0.0
2018-May-21 02:19N 43°34' W 005°41'0 0.0
2018-May-21 01:49N 43°34' W 005°41'0 0.0
2018-May-20 20:37N 43°34' W 005°41'0 0.0
2018-May-20 20:19N 43°34' W 005°41'0 0.0
2018-May-20 19:19N 43°34' W 005°41'0 0.0
2018-May-20 18:49N 43°34' W 005°41'0 0.0
2018-May-20 18:13N 43°34' W 005°41'0 0.0
2018-May-20 17:43N 43°34' W 005°41'0 0.0
2018-May-20 17:25N 43°34' W 005°41'0 0.0
2018-May-20 12:57N 43°34' W 005°41'0 0.0
2018-May-20 12:27N 43°34' W 005°41'0 0.0
2018-May-20 11:57N 43°34' W 005°41'0 0.0
2018-May-20 10:21N 43°34' W 005°41'0 0.0
2018-May-20 09:21N 43°34' W 005°41'0 0.0
2018-May-20 08:57N 43°34' W 005°41'0 0.0
2018-May-20 08:28N 43°34' W 005°41'0 0.0
2018-May-20 07:25N 43°34' W 005°41'0 0.0
2018-May-20 06:55N 43°34' W 005°41'0 0.0
2018-May-20 06:25N 43°34' W 005°41'0 0.0
2018-May-20 05:49N 43°34' W 005°41'0 0.0
2018-May-20 05:19N 43°34' W 005°41'0 0.0
2018-May-20 04:55N 43°34' W 005°41'0 0.0
2018-May-20 04:25N 43°34' W 005°41'0 0.0
2018-May-20 03:55N 43°34' W 005°41'0 0.0
2018-May-20 03:25N 43°34' W 005°41'0 0.0
2018-May-20 02:49N 43°34' W 005°41'0 0.0
2018-May-20 02:25N 43°34' W 005°41'0 0.0
2018-May-20 01:55N 43°34' W 005°41'0 0.1
2018-May-20 01:30N 43°34' W 005°41'0 0.1
2018-May-20 01:00N 43°34' W 005°41'0 0.0
2018-May-20 00:18N 43°34' W 005°41'0 0.0
2018-May-19 20:38N 43°34' W 005°41'0 0.0
2018-May-19 20:20N 43°34' W 005°41'0 0.0
2018-May-19 13:16N 43°34' W 005°41'0 0.0
2018-May-19 12:52N 43°34' W 005°41'0 0.0
2018-May-19 12:28N 43°34' W 005°41'0 0.0
2018-May-19 11:58N 43°34' W 005°41'0 0.0
2018-May-19 11:28N 43°34' W 005°41'0 0.0
2018-May-19 10:33N 43°34' W 005°41'0 0.0
2018-May-19 08:45N 43°34' W 005°41'0 0.0
2018-May-19 08:26N 43°34' W 005°41'0 0.0
2018-May-19 07:55N 43°34' W 005°41'0 0.0
2018-May-19 07:25N 43°34' W 005°41'0 0.0
2018-May-19 06:25N 43°34' W 005°41'0 0.0
2018-May-19 05:55N 43°34' W 005°41'0 0.0
2018-May-19 05:13N 43°34' W 005°41'0 0.0
2018-May-19 04:55N 43°34' W 005°41'0 0.0
2018-May-19 04:25N 43°34' W 005°41'0 0.0
2018-May-19 02:55N 43°34' W 005°41'0 0.0
2018-May-19 02:19N 43°34' W 005°41'0 0.0
2018-May-19 01:49N 43°34' W 005°41'0 0.0
2018-May-19 00:55N 43°34' W 005°41'0 0.0
2018-May-19 00:25N 43°34' W 005°41'0 0.0
2018-May-18 19:48N 43°34' W 005°41'0 0.0
2018-May-18 19:18N 43°34' W 005°41'0 0.0
2018-May-18 19:00N 43°34' W 005°41'0 0.0
2018-May-18 18:18N 43°34' W 005°41'0 0.0
2018-May-18 16:18N 43°34' W 005°41'0 0.0
2018-May-18 12:00N 43°34' W 005°41'0 0.2
2018-May-18 11:29N 43°34' W 005°41'0 0.1
2018-May-18 10:39N 43°34' W 005°41'0 0.0
2018-May-18 10:27N 43°34' W 005°41'0 0.0
2018-May-18 09:39N 43°34' W 005°41'0 0.0
2018-May-18 09:27N 43°34' W 005°41'0 0.0
2018-May-18 08:45N 43°34' W 005°41'0 0.0
2018-May-18 08:25N 43°34' W 005°41'0 0.0
2018-May-18 06:13N 43°34' W 005°41'0 0.0
2018-May-18 05:55N 43°34' W 005°41'0 0.0
2018-May-18 04:37N 43°34' W 005°41'0 0.0
2018-May-18 04:19N 43°34' W 005°41'0 0.0
2018-May-18 03:55N 43°34' W 005°41'0 0.0
2018-May-18 03:19N 43°34' W 005°41'0 0.0
2018-May-18 02:43N 43°34' W 005°41'0 0.0
2018-May-18 02:25N 43°34' W 005°41'0 0.0
2018-May-18 01:01N 43°34' W 005°41'0 0.0
2018-May-18 00:55N 43°34' W 005°41'0 0.0
2018-May-18 00:19N 43°34' W 005°41'0 0.0
2018-May-17 19:49N 43°34' W 005°41'0 0.0
2018-May-17 19:19N 43°34' W 005°41'0 0.0
2018-May-17 18:49N 43°34' W 005°41'0 0.0
2018-May-17 17:55N 43°34' W 005°41'0 0.0
2018-May-17 17:31N 43°34' W 005°41'0 0.0
2018-May-17 11:30N 43°34' W 005°41'0 0.0
2018-May-17 04:38N 43°34' W 005°41'0 0.0
2018-May-17 04:26N 43°34' W 005°41'0 0.1
2018-May-17 03:59N 43°34' W 005°41'0 0.8
2018-May-17 03:29N 43°34' W 005°41'2 3.5
2018-May-17 03:00N 43°35' W 005°40'3 5.7
2018-May-17 02:30N 43°38' W 005°41'510.2
2018-May-17 02:00N 43°43' W 005°42'2 3.4
2018-May-17 01:30N 43°45' W 005°43'0 0.4
2018-May-17 00:37N 43°45' W 005°43'0 1.0
2018-May-17 00:19N 43°44' W 005°43'  

Dump ship's entire track history